createdAt,value
2023-01-21T00:00:33.262Z,1.10
2023-01-21T00:02:50.507Z,1.10
2023-01-21T00:05:07.471Z,1.10
2023-01-21T00:07:24.531Z,1.08
2023-01-21T00:09:41.872Z,1.06
2023-01-21T00:11:59.215Z,1.06
2023-01-21T00:14:17.327Z,1.07
2023-01-21T00:16:34.567Z,1.09
2023-01-21T00:18:51.554Z,1.08
2023-01-21T00:21:08.623Z,1.05
2023-01-21T00:23:25.717Z,1.06
2023-01-21T00:25:43.133Z,1.07
2023-01-21T00:28:00.400Z,1.07
2023-01-21T00:30:17.927Z,1.06
2023-01-21T00:32:35.219Z,1.10
2023-01-21T00:34:52.288Z,1.07
2023-01-21T00:37:09.422Z,1.06
2023-01-21T00:39:26.380Z,1.00
2023-01-21T00:41:43.698Z,1.05
2023-01-21T00:44:00.826Z,1.10
2023-01-21T00:46:18.196Z,1.08
2023-01-21T00:48:35.617Z,1.09
2023-01-21T00:50:52.934Z,1.08
2023-01-21T00:53:11.266Z,1.05
2023-01-21T00:55:28.610Z,1.08
2023-01-21T00:57:45.976Z,1.07
2023-01-21T01:00:03.886Z,1.13
2023-01-21T01:02:20.934Z,1.12
2023-01-21T01:04:38.054Z,1.11
2023-01-21T01:06:54.999Z,1.25
2023-01-21T01:09:12.708Z,1.18
2023-01-21T01:11:29.646Z,1.19
2023-01-21T01:13:46.797Z,1.14
2023-01-21T01:16:04.845Z,1.09
2023-01-21T01:18:23.231Z,1.08
2023-01-21T01:20:40.684Z,1.10
2023-01-21T01:22:58.745Z,1.06
2023-01-21T01:25:16.181Z,1.07
2023-01-21T01:27:34.162Z,1.03
2023-01-21T01:29:51.338Z,1.03
2023-01-21T01:32:08.368Z,1.02
2023-01-21T01:34:26.721Z,1.03
2023-01-21T01:36:43.776Z,1.02
2023-01-21T01:39:01.329Z,1.03
2023-01-21T01:41:18.608Z,1.06
2023-01-21T01:43:36.856Z,1.10
2023-01-21T01:45:54.116Z,1.06
2023-01-21T01:48:12.451Z,1.05
2023-01-21T01:50:29.506Z,1.11
2023-01-21T01:52:46.568Z,1.04
2023-01-21T01:55:03.554Z,1.05
2023-01-21T01:57:20.618Z,1.07
2023-01-21T01:59:37.546Z,1.09
2023-01-21T02:01:54.931Z,1.05
2023-01-21T02:04:12.042Z,1.07
2023-01-21T02:06:29.014Z,1.05
2023-01-21T02:08:46.273Z,1.04
2023-01-21T02:11:03.369Z,1.04
2023-01-21T02:13:21.317Z,1.02
2023-01-21T02:15:38.294Z,1.02
2023-01-21T02:17:56.364Z,1.05
2023-01-21T02:20:13.840Z,1.02
2023-01-21T02:22:31.031Z,1.03
2023-01-21T02:24:48.115Z,1.09
2023-01-21T02:27:05.124Z,1.05
2023-01-21T02:29:22.433Z,1.09
2023-01-21T02:31:39.548Z,1.05
2023-01-21T02:33:56.846Z,1.07
2023-01-21T02:36:13.971Z,1.08
2023-01-21T02:38:31.249Z,1.03
2023-01-21T02:40:48.524Z,1.06
2023-01-21T02:43:05.607Z,1.00
2023-01-21T02:45:22.606Z,1.01
2023-01-21T02:47:39.562Z,1.00
2023-01-21T02:49:59.584Z,0.97
2023-01-21T02:52:16.827Z,0.99
2023-01-21T02:54:33.808Z,0.96
2023-01-21T02:56:50.996Z,0.99
2023-01-21T02:59:08.959Z,0.99
2023-01-21T03:01:25.881Z,0.98
2023-01-21T03:03:44.263Z,0.99
2023-01-21T03:06:01.338Z,0.95
2023-01-21T03:08:18.574Z,0.96
2023-01-21T03:10:35.574Z,0.98
2023-01-21T03:12:52.606Z,1.01
2023-01-21T03:15:09.719Z,0.97
2023-01-21T03:17:26.960Z,0.95
2023-01-21T03:19:44.042Z,0.93
2023-01-21T03:22:02.941Z,1.06
2023-01-21T03:24:20.291Z,1.02
2023-01-21T03:26:37.151Z,1.02
2023-01-21T03:28:54.102Z,0.98
2023-01-21T03:31:11.306Z,0.99
2023-01-21T03:33:28.310Z,1.02
2023-01-21T03:35:45.202Z,0.97
2023-01-21T03:38:02.088Z,1.00
2023-01-21T03:40:21.947Z,0.97
2023-01-21T03:42:41.915Z,1.00
2023-01-21T03:45:00.275Z,1.01
2023-01-21T03:47:17.125Z,1.02
2023-01-21T03:49:34.053Z,1.02
2023-01-21T03:51:51.370Z,0.98
2023-01-21T03:54:08.364Z,1.00
2023-01-21T03:56:26.646Z,0.99
2023-01-21T03:58:45.646Z,1.05
2023-01-21T04:01:02.728Z,1.00
2023-01-21T04:03:19.964Z,0.95
2023-01-21T04:05:37.058Z,0.92
2023-01-21T04:07:54.364Z,0.96
2023-01-21T04:10:11.290Z,0.97
2023-01-21T04:12:28.229Z,0.98
2023-01-21T04:14:45.574Z,0.95
2023-01-21T04:17:02.861Z,0.95
2023-01-21T04:19:20.208Z,0.98
2023-01-21T04:21:37.227Z,0.95
2023-01-21T04:23:54.340Z,0.99
2023-01-21T04:26:11.710Z,1.00
2023-01-21T04:28:28.809Z,0.97
2023-01-21T04:30:45.908Z,1.01
2023-01-21T04:33:02.977Z,0.99
2023-01-21T04:35:19.919Z,0.99
2023-01-21T04:37:37.041Z,0.98
2023-01-21T04:39:54.008Z,0.95
2023-01-21T04:42:11.007Z,0.94
2023-01-21T04:44:27.996Z,0.96
2023-01-21T04:46:45.223Z,0.95
2023-01-21T04:49:02.243Z,0.95
2023-01-21T04:51:19.298Z,0.97
2023-01-21T04:53:36.249Z,0.97
2023-01-21T04:55:53.342Z,0.98
2023-01-21T04:58:10.394Z,0.97
2023-01-21T05:00:27.385Z,0.96
2023-01-21T05:02:44.576Z,0.97
2023-01-21T05:05:01.814Z,1.00
2023-01-21T05:07:21.556Z,1.02
2023-01-21T05:09:39.014Z,0.99
2023-01-21T05:11:56.017Z,1.02
2023-01-21T05:14:13.066Z,0.99
2023-01-21T05:16:30.440Z,0.99
2023-01-21T05:18:47.491Z,0.99
2023-01-21T05:21:04.457Z,0.98
2023-01-21T05:23:21.518Z,0.99
2023-01-21T05:25:38.535Z,0.95
2023-01-21T05:27:55.775Z,0.90
2023-01-21T05:30:12.785Z,0.87
2023-01-21T05:32:30.949Z,0.84
2023-01-21T05:34:48.333Z,0.80
2023-01-21T05:37:05.400Z,0.76
2023-01-21T05:39:22.352Z,0.72
2023-01-21T05:41:39.615Z,0.66
2023-01-21T05:43:56.539Z,0.63
2023-01-21T05:46:13.479Z,0.59
2023-01-21T05:48:30.786Z,0.48
2023-01-21T05:50:47.942Z,0.49
2023-01-21T05:53:05.040Z,0.48
2023-01-21T05:55:22.086Z,0.40
2023-01-21T05:57:39.117Z,0.39
2023-01-21T05:59:56.397Z,0.24
2023-01-21T06:02:13.694Z,0.16
2023-01-21T06:04:30.945Z,0.10
2023-01-21T06:06:48.268Z,0.00
2023-01-21T06:09:05.354Z,-0.05
2023-01-21T06:11:23.389Z,-0.12
2023-01-21T06:13:40.727Z,-0.23
2023-01-21T06:15:57.796Z,-0.28
2023-01-21T06:18:14.856Z,-0.32
2023-01-21T06:20:32.137Z,-0.43
2023-01-21T06:22:49.035Z,-0.45
2023-01-21T06:25:06.308Z,-0.60
2023-01-21T06:27:23.341Z,-0.60
2023-01-21T06:29:40.602Z,-0.62
2023-01-21T06:31:57.804Z,-0.57
2023-01-21T06:34:14.844Z,-0.66
2023-01-21T06:36:32.130Z,-0.73
2023-01-21T06:38:49.315Z,-0.80
2023-01-21T06:41:06.349Z,-0.80
2023-01-21T06:43:24.347Z,-0.91
2023-01-21T06:45:41.725Z,-0.93
2023-01-21T06:47:58.792Z,-0.93
2023-01-21T06:50:16.082Z,-1.02
2023-01-21T06:52:33.305Z,-1.09
2023-01-21T06:54:50.562Z,-1.17
2023-01-21T06:57:07.498Z,-1.18
2023-01-21T06:59:24.486Z,-1.24
2023-01-21T07:01:41.860Z,-1.26
2023-01-21T07:03:58.849Z,-1.31
2023-01-21T07:06:15.755Z,-1.41
2023-01-21T07:08:32.812Z,-1.50
2023-01-21T07:10:49.849Z,-1.57
2023-01-21T07:13:07.153Z,-1.51
2023-01-21T07:15:24.128Z,-1.52
2023-01-21T07:17:41.197Z,-1.50
2023-01-21T07:19:58.166Z,-1.58
2023-01-21T07:22:15.066Z,-1.64
2023-01-21T07:24:32.359Z,-1.74
2023-01-21T07:26:49.617Z,-1.77
2023-01-21T07:29:06.819Z,-1.90
2023-01-21T07:31:23.921Z,-1.90
2023-01-21T07:33:41.181Z,-1.91
2023-01-21T07:35:58.141Z,-1.99
2023-01-21T07:38:15.604Z,-1.96
2023-01-21T07:40:32.885Z,-1.99
2023-01-21T07:42:49.814Z,-2.00
2023-01-21T07:45:07.077Z,-1.99
2023-01-21T07:47:23.987Z,-2.08
2023-01-21T07:49:41.356Z,-2.11
2023-01-21T07:51:58.691Z,-2.11
2023-01-21T07:54:15.711Z,-2.17
2023-01-21T07:56:32.772Z,-2.16
2023-01-21T07:58:49.728Z,-2.21
2023-01-21T08:01:07.006Z,-2.23
2023-01-21T08:03:24.036Z,-2.20
2023-01-21T08:05:41.078Z,-2.28
2023-01-21T08:07:58.118Z,-2.31
2023-01-21T08:10:16.015Z,-2.32
2023-01-21T08:12:32.956Z,-2.23
2023-01-21T08:14:50.015Z,-2.29
2023-01-21T08:17:07.054Z,-2.23
2023-01-21T08:19:24.281Z,-2.31
2023-01-21T08:21:41.318Z,-2.21
2023-01-21T08:23:58.655Z,-2.22
2023-01-21T08:26:15.689Z,-2.26
2023-01-21T08:28:32.684Z,-2.30
2023-01-21T08:30:50.015Z,-2.20
2023-01-21T08:33:07.145Z,-2.25
2023-01-21T08:35:24.429Z,-2.23
2023-01-21T08:37:41.367Z,-2.17
2023-01-21T08:39:58.613Z,-2.07
2023-01-21T08:42:15.650Z,-2.02
2023-01-21T08:44:33.576Z,-1.94
2023-01-21T08:46:50.554Z,-1.86
2023-01-21T08:49:07.879Z,-1.77
2023-01-21T08:51:24.835Z,-1.69
2023-01-21T08:53:42.952Z,-1.69
2023-01-21T08:55:59.966Z,-1.68
2023-01-21T08:58:17.027Z,-1.69
2023-01-21T09:00:35.034Z,-1.61
2023-01-21T09:02:52.116Z,-1.39
2023-01-21T09:05:09.658Z,-1.33
2023-01-21T09:07:27.830Z,-1.37
2023-01-21T09:09:45.012Z,-1.33
2023-01-21T09:12:02.339Z,-1.29
2023-01-21T09:14:19.366Z,-1.22
2023-01-21T09:16:36.768Z,-1.22
2023-01-21T09:18:53.619Z,-1.18
2023-01-21T09:21:10.607Z,-1.09
2023-01-21T09:23:27.620Z,-1.08
2023-01-21T09:25:44.906Z,-1.01
2023-01-21T09:28:02.173Z,-0.99
2023-01-21T09:30:20.595Z,-0.98
2023-01-21T09:32:38.835Z,-0.89
2023-01-21T09:34:56.071Z,-0.77
2023-01-21T09:37:13.353Z,-0.68
2023-01-21T09:39:30.647Z,-0.65
2023-01-21T09:41:47.708Z,-0.59
2023-01-21T09:44:04.746Z,-0.55
2023-01-21T09:46:21.977Z,-0.45
2023-01-21T09:48:39.056Z,-0.51
2023-01-21T09:50:56.355Z,-0.44
2023-01-21T09:53:13.623Z,-0.37
2023-01-21T09:55:30.846Z,-0.32
2023-01-21T09:57:47.946Z,-0.32
2023-01-21T10:00:04.910Z,-0.25
2023-01-21T10:02:22.228Z,-0.21
2023-01-21T10:04:39.333Z,-0.10
2023-01-21T10:06:56.757Z,-0.07
2023-01-21T10:09:14.632Z,-0.07
2023-01-21T10:11:31.622Z,-0.04
2023-01-21T10:13:48.986Z,-0.02
2023-01-21T10:16:06.554Z,0.08
2023-01-21T10:18:23.654Z,0.09
2023-01-21T10:20:40.946Z,0.15
2023-01-21T10:22:58.197Z,0.21
2023-01-21T10:25:15.695Z,0.26
2023-01-21T10:27:34.014Z,0.25
2023-01-21T10:29:51.411Z,0.23
2023-01-21T10:32:08.695Z,0.31
2023-01-21T10:34:26.757Z,0.38
2023-01-21T10:36:43.867Z,0.50
2023-01-21T10:39:01.028Z,0.39
2023-01-21T10:41:18.276Z,0.38
2023-01-21T10:43:36.433Z,0.59
2023-01-21T10:45:53.532Z,0.51
2023-01-21T10:48:11.772Z,0.46
2023-01-21T10:50:28.838Z,0.56
2023-01-21T10:52:46.129Z,0.60
2023-01-21T10:55:03.385Z,0.75
2023-01-21T10:57:20.464Z,0.59
2023-01-21T10:59:37.560Z,0.48
2023-01-21T11:01:54.977Z,0.47
2023-01-21T11:04:12.070Z,0.46
2023-01-21T11:06:30.123Z,0.53
2023-01-21T11:08:47.103Z,0.47
2023-01-21T11:11:05.517Z,0.50
2023-01-21T11:13:22.763Z,0.46
2023-01-21T11:15:40.133Z,0.52
2023-01-21T11:17:57.075Z,0.50
2023-01-21T11:20:15.383Z,0.51
2023-01-21T11:22:32.775Z,0.60
2023-01-21T11:24:50.820Z,0.72
2023-01-21T11:27:07.866Z,0.67
2023-01-21T11:29:25.996Z,0.73
2023-01-21T11:31:43.240Z,0.68
2023-01-21T11:34:00.719Z,0.63
2023-01-21T11:36:17.660Z,0.69
2023-01-21T11:38:35.154Z,0.73
2023-01-21T11:40:52.284Z,0.67
2023-01-21T11:43:09.620Z,0.67
2023-01-21T11:45:27.988Z,0.65
2023-01-21T11:47:45.467Z,0.71
2023-01-21T11:50:02.478Z,0.68
2023-01-21T11:52:19.841Z,0.59
2023-01-21T11:54:37.153Z,0.77
2023-01-21T11:56:54.460Z,0.58
2023-01-21T11:59:11.618Z,0.69
2023-01-21T12:01:28.941Z,0.60
2023-01-21T12:03:46.282Z,0.62
2023-01-21T12:06:03.436Z,0.61
2023-01-21T12:08:20.562Z,0.51
2023-01-21T12:10:37.806Z,0.62
2023-01-21T12:12:54.862Z,0.46
2023-01-21T12:15:12.212Z,0.59
2023-01-21T12:17:29.323Z,0.46
2023-01-21T12:19:46.302Z,0.42
2023-01-21T12:22:03.455Z,0.29
2023-01-21T12:24:20.405Z,0.34
2023-01-21T12:26:37.402Z,0.40
2023-01-21T12:28:54.601Z,0.47
2023-01-21T12:31:12.125Z,0.46
2023-01-21T12:33:30.219Z,0.47
2023-01-21T12:35:47.200Z,0.50
2023-01-21T12:38:04.552Z,0.52
2023-01-21T12:40:21.778Z,0.51
2023-01-21T12:42:39.030Z,0.56
2023-01-21T12:44:56.327Z,0.56
2023-01-21T12:47:13.382Z,0.44
2023-01-21T12:49:30.836Z,0.48
2023-01-21T12:51:47.925Z,0.44
2023-01-21T12:54:04.962Z,0.46
2023-01-21T12:56:22.017Z,0.51
2023-01-21T12:58:39.125Z,0.48
2023-01-21T13:00:56.165Z,0.50
2023-01-21T13:03:13.324Z,0.47
2023-01-21T13:05:30.298Z,0.46
2023-01-21T13:07:47.375Z,0.52
2023-01-21T13:10:04.452Z,0.48
2023-01-21T13:12:21.524Z,0.55
2023-01-21T13:14:39.548Z,0.59
2023-01-21T13:16:56.592Z,0.54
2023-01-21T13:19:13.740Z,0.51
2023-01-21T13:21:30.781Z,0.58
2023-01-21T13:23:47.787Z,0.58
2023-01-21T13:26:04.853Z,0.57
2023-01-21T13:28:22.784Z,0.56
2023-01-21T13:30:39.853Z,0.61
2023-01-21T13:32:56.947Z,0.57
2023-01-21T13:35:14.413Z,0.54
2023-01-21T13:37:31.623Z,0.64
2023-01-21T13:39:48.729Z,0.66
2023-01-21T13:42:06.767Z,0.71
2023-01-21T13:44:23.737Z,0.56
2023-01-21T13:46:41.037Z,0.56
2023-01-21T13:48:58.170Z,0.59
2023-01-21T13:51:15.562Z,0.49
2023-01-21T13:53:33.554Z,0.64
2023-01-21T13:55:50.937Z,0.64
2023-01-21T13:58:08.047Z,0.51
2023-01-21T14:00:26.168Z,0.43
2023-01-21T14:02:43.130Z,0.38
2023-01-21T14:05:00.255Z,0.33
2023-01-21T14:07:18.366Z,0.30
2023-01-21T14:09:38.376Z,0.24
2023-01-21T14:11:55.795Z,0.22
2023-01-21T14:14:12.954Z,0.34
2023-01-21T14:16:30.360Z,0.28
2023-01-21T14:18:47.748Z,0.26
2023-01-21T14:21:05.016Z,0.23
2023-01-21T14:23:23.416Z,0.29
2023-01-21T14:25:40.431Z,0.21
2023-01-21T14:27:57.537Z,0.18
2023-01-21T14:30:14.685Z,0.32
2023-01-21T14:32:32.149Z,0.27
2023-01-21T14:34:49.333Z,0.29
2023-01-21T14:37:06.257Z,0.27
2023-01-21T14:39:23.281Z,0.25
2023-01-21T14:41:40.679Z,0.21
2023-01-21T14:43:57.647Z,0.18
2023-01-21T14:46:14.974Z,0.22
2023-01-21T14:48:32.266Z,0.20
2023-01-21T14:50:50.574Z,0.22
2023-01-21T14:53:07.762Z,0.25
2023-01-21T14:55:24.999Z,0.23
2023-01-21T14:57:44.732Z,0.18
2023-01-21T15:00:04.839Z,0.18
2023-01-21T15:02:21.998Z,0.16
2023-01-21T15:04:38.925Z,0.24
2023-01-21T15:06:56.804Z,0.25
2023-01-21T15:09:13.789Z,0.20
2023-01-21T15:11:31.918Z,0.20
2023-01-21T15:13:49.753Z,0.16
2023-01-21T15:16:06.897Z,0.20
2023-01-21T15:18:24.086Z,0.15
2023-01-21T15:20:42.111Z,0.16
2023-01-21T15:22:59.677Z,0.20
2023-01-21T15:25:18.162Z,0.22
2023-01-21T15:27:35.374Z,0.25
2023-01-21T15:29:52.346Z,0.19
2023-01-21T15:32:09.469Z,0.16
2023-01-21T15:34:26.881Z,0.14
2023-01-21T15:36:44.027Z,0.12
2023-01-21T15:39:02.275Z,0.20
2023-01-21T15:41:19.758Z,0.16
2023-01-21T15:43:37.105Z,0.21
2023-01-21T15:45:54.577Z,0.18
2023-01-21T15:48:11.717Z,0.16
2023-01-21T15:50:28.737Z,0.15
2023-01-21T15:52:46.647Z,0.11
2023-01-21T15:55:03.793Z,0.12
2023-01-21T15:57:20.836Z,0.12
2023-01-21T15:59:37.840Z,0.11
2023-01-21T16:01:59.014Z,0.10
2023-01-21T16:04:16.122Z,0.08
2023-01-21T16:06:33.116Z,0.08
2023-01-21T16:08:50.161Z,0.03
2023-01-21T16:11:08.452Z,0.05
2023-01-21T16:13:25.736Z,0.05
2023-01-21T16:15:43.994Z,0.03
2023-01-21T16:18:01.124Z,0.02
2023-01-21T16:20:18.213Z,0.02
2023-01-21T16:22:35.395Z,0.03
2023-01-21T16:24:53.396Z,-0.04
2023-01-21T16:27:10.413Z,-0.08
2023-01-21T16:29:27.393Z,-0.05
2023-01-21T16:31:45.310Z,-0.03
2023-01-21T16:34:03.258Z,-0.05
2023-01-21T16:36:20.696Z,-0.01
2023-01-21T16:38:37.790Z,0.02
2023-01-21T16:40:54.724Z,0.03
2023-01-21T16:43:11.824Z,0.01
2023-01-21T16:45:31.514Z,-0.01
2023-01-21T16:47:48.500Z,-0.03
2023-01-21T16:50:05.795Z,-0.03
2023-01-21T16:52:22.903Z,-0.08
2023-01-21T16:54:40.038Z,-0.04
2023-01-21T16:56:57.050Z,-0.05
2023-01-21T16:59:15.163Z,-0.05
2023-01-21T17:01:32.481Z,-0.02
2023-01-21T17:03:50.536Z,-0.02
2023-01-21T17:06:07.906Z,-0.01
2023-01-21T17:08:25.874Z,0.00
2023-01-21T17:10:43.154Z,0.04
2023-01-21T17:13:00.445Z,-0.01
2023-01-21T17:15:17.817Z,-0.03
2023-01-21T17:17:35.491Z,-0.04
2023-01-21T17:19:55.104Z,-0.06
2023-01-21T17:22:13.401Z,-0.08
2023-01-21T17:24:30.544Z,-0.08
2023-01-21T17:26:52.154Z,-0.10
2023-01-21T17:29:09.521Z,-0.12
2023-01-21T17:31:26.914Z,-0.12
2023-01-21T17:33:44.302Z,-0.11
2023-01-21T17:36:01.478Z,-0.10
2023-01-21T17:38:19.839Z,-0.11
2023-01-21T17:40:38.440Z,-0.14
2023-01-21T17:42:55.508Z,-0.14
2023-01-21T17:45:12.629Z,-0.12
2023-01-21T17:47:29.990Z,-0.12
2023-01-21T17:49:48.129Z,-0.13
2023-01-21T17:52:05.417Z,-0.10
2023-01-21T17:54:23.375Z,-0.11
2023-01-21T17:56:40.332Z,-0.12
2023-01-21T17:58:57.424Z,-0.11
2023-01-21T18:01:15.795Z,-0.12
2023-01-21T18:03:33.313Z,-0.12
2023-01-21T18:05:51.706Z,-0.16
2023-01-21T18:08:08.781Z,-0.16
2023-01-21T18:10:25.889Z,-0.17
2023-01-21T18:12:43.227Z,-0.19
2023-01-21T18:15:00.195Z,-0.18
2023-01-21T18:17:17.395Z,-0.18
2023-01-21T18:19:34.393Z,-0.14
2023-01-21T18:21:51.573Z,-0.10
2023-01-21T18:24:09.598Z,-0.12
2023-01-21T18:26:29.857Z,-0.14
2023-01-21T18:28:46.838Z,-0.11
2023-01-21T18:31:04.347Z,-0.08
2023-01-21T18:33:21.697Z,-0.07
2023-01-21T18:35:39.748Z,-0.06
2023-01-21T18:37:56.849Z,-0.09
2023-01-21T18:40:14.229Z,-0.07
2023-01-21T18:42:31.247Z,-0.08
2023-01-21T18:44:48.180Z,-0.07
2023-01-21T18:47:05.189Z,-0.10
2023-01-21T18:49:23.146Z,-0.07
2023-01-21T18:51:40.461Z,-0.08
2023-01-21T18:53:57.885Z,-0.10
2023-01-21T18:56:15.384Z,-0.09
2023-01-21T18:58:35.418Z,-0.06
2023-01-21T19:00:52.370Z,-0.06
2023-01-21T19:03:09.482Z,-0.10
2023-01-21T19:05:26.515Z,-0.10
2023-01-21T19:07:43.539Z,-0.13
2023-01-21T19:10:01.509Z,-0.21
2023-01-21T19:12:18.450Z,-0.25
2023-01-21T19:14:35.510Z,-0.30
2023-01-21T19:16:52.843Z,-0.31
2023-01-21T19:19:09.910Z,-0.34
2023-01-21T19:21:26.832Z,-0.38
2023-01-21T19:23:43.890Z,-0.44
2023-01-21T19:26:01.199Z,-0.45
2023-01-21T19:28:18.231Z,-0.52
2023-01-21T19:30:36.471Z,-0.53
2023-01-21T19:32:53.564Z,-0.56
2023-01-21T19:35:10.643Z,-0.56
2023-01-21T19:37:27.733Z,-0.56
2023-01-21T19:39:46.010Z,-0.57
2023-01-21T19:42:08.264Z,-0.53
2023-01-21T19:44:25.933Z,-0.54
2023-01-21T19:46:43.337Z,-0.55
2023-01-21T19:49:00.650Z,-0.56
2023-01-21T19:51:17.662Z,-0.57
2023-01-21T19:53:34.763Z,-0.53
2023-01-21T19:55:52.102Z,-0.48
2023-01-21T19:58:09.123Z,-0.45
2023-01-21T20:00:26.162Z,-0.47
2023-01-21T20:02:43.424Z,-0.43
2023-01-21T20:05:00.504Z,-0.45
2023-01-21T20:07:17.563Z,-0.44
2023-01-21T20:09:34.635Z,-0.29
2023-01-21T20:11:51.752Z,-0.17
2023-01-21T20:14:08.944Z,-0.11
2023-01-21T20:16:26.405Z,-0.15
2023-01-21T20:18:44.365Z,-0.06
2023-01-21T20:21:01.588Z,-0.09
2023-01-21T20:23:18.724Z,-0.07
2023-01-21T20:25:35.783Z,-0.12
2023-01-21T20:27:52.831Z,-0.14
2023-01-21T20:30:15.915Z,-0.14
2023-01-21T20:32:33.363Z,-0.14
2023-01-21T20:34:50.658Z,-0.12
2023-01-21T20:37:09.015Z,-0.15
2023-01-21T20:39:26.023Z,-0.14
2023-01-21T20:41:43.350Z,-0.17
2023-01-21T20:44:00.436Z,-0.16
2023-01-21T20:46:18.662Z,-0.16
2023-01-21T20:48:35.849Z,-0.18
2023-01-21T20:50:54.306Z,-0.17
2023-01-21T20:53:12.269Z,-0.14
2023-01-21T20:55:30.209Z,-0.13
2023-01-21T20:57:47.280Z,-0.16
2023-01-21T21:00:05.590Z,-0.11
2023-01-21T21:02:22.590Z,-0.11
2023-01-21T21:04:39.732Z,-0.08
2023-01-21T21:06:56.873Z,-0.08
2023-01-21T21:09:13.946Z,-0.08
2023-01-21T21:11:31.356Z,-0.12
2023-01-21T21:13:49.334Z,-0.12
2023-01-21T21:16:07.689Z,-0.12
2023-01-21T21:18:24.709Z,-0.16
2023-01-21T21:20:42.022Z,-0.20
2023-01-21T21:22:59.138Z,-0.16
2023-01-21T21:25:17.597Z,-0.19
2023-01-21T21:27:35.061Z,-0.19
2023-01-21T21:29:52.977Z,-0.16
2023-01-21T21:32:12.215Z,-0.21
2023-01-21T21:34:29.511Z,-0.19
2023-01-21T21:36:47.854Z,-0.20
2023-01-21T21:39:04.914Z,-0.19
2023-01-21T21:41:22.237Z,-0.22
2023-01-21T21:43:40.985Z,-0.21
2023-01-21T21:45:58.129Z,-0.17
2023-01-21T21:48:16.103Z,-0.19
2023-01-21T21:50:33.262Z,-0.17
2023-01-21T21:52:51.748Z,-0.20
2023-01-21T21:55:08.997Z,-0.18
2023-01-21T21:57:26.345Z,-0.19
2023-01-21T21:59:44.347Z,-0.22
2023-01-21T22:02:01.539Z,-0.22
2023-01-21T22:04:18.889Z,-0.23
2023-01-21T22:06:35.942Z,-0.24
2023-01-21T22:08:53.053Z,-0.22
2023-01-21T22:11:10.491Z,-0.16
2023-01-21T22:13:27.569Z,-0.15
2023-01-21T22:15:44.884Z,-0.14
2023-01-21T22:18:02.068Z,-0.09
2023-01-21T22:20:20.432Z,-0.07
2023-01-21T22:22:37.772Z,-0.08
2023-01-21T22:24:54.943Z,-0.01
2023-01-21T22:27:13.243Z,-0.07
2023-01-21T22:29:30.577Z,-0.10
2023-01-21T22:31:47.770Z,-0.08
2023-01-21T22:34:05.741Z,-0.11
2023-01-21T22:36:22.789Z,-0.05
2023-01-21T22:38:40.838Z,-0.02
2023-01-21T22:40:58.245Z,-0.05
2023-01-21T22:43:15.600Z,-0.07
2023-01-21T22:45:32.873Z,-0.06
2023-01-21T22:47:51.001Z,-0.08
2023-01-21T22:50:08.651Z,-0.05
2023-01-21T22:52:26.664Z,-0.04
2023-01-21T22:54:43.708Z,-0.04
2023-01-21T22:57:02.126Z,-0.01
2023-01-21T22:59:19.263Z,-0.04
2023-01-21T23:01:36.775Z,-0.04
2023-01-21T23:03:54.924Z,-0.02
2023-01-21T23:06:12.001Z,-0.01
2023-01-21T23:08:29.983Z,-0.01
2023-01-21T23:10:46.930Z,0.01
2023-01-21T23:13:03.920Z,0.01
2023-01-21T23:15:21.045Z,0.03
2023-01-21T23:17:38.345Z,-0.01
2023-01-21T23:19:56.734Z,-0.01
2023-01-21T23:22:14.012Z,0.00
2023-01-21T23:24:31.352Z,0.01
2023-01-21T23:26:48.450Z,0.02
2023-01-21T23:29:06.713Z,0.01
2023-01-21T23:31:24.075Z,0.06
2023-01-21T23:33:41.636Z,0.06
2023-01-21T23:35:59.464Z,0.10
2023-01-21T23:38:16.472Z,0.11
2023-01-21T23:40:33.725Z,0.11
2023-01-21T23:42:50.805Z,0.09
2023-01-21T23:45:09.113Z,0.12
2023-01-21T23:47:26.483Z,0.15
2023-01-21T23:49:43.622Z,0.20
2023-01-21T23:52:01.091Z,0.30
2023-01-21T23:54:18.021Z,0.29
2023-01-21T23:56:37.854Z,0.22
2023-01-21T23:58:55.250Z,0.25
